createdAt,value
2016-12-12T07:16:28.488Z,22.2
2016-12-12T07:17:01.306Z,22.2
2016-12-12T07:17:33.448Z,22.3
2016-12-12T07:18:07.349Z,22.3
2016-12-12T07:18:39.487Z,22.3
2016-12-12T07:19:11.626Z,22.4
2016-12-12T07:19:43.772Z,22.4
2016-12-12T07:20:15.917Z,22.5
2016-12-12T07:20:48.062Z,22.5
2016-12-12T07:21:20.196Z,22.5
2016-12-12T07:21:52.331Z,22.5
2016-12-12T07:22:27.117Z,22.5
2016-12-12T07:22:59.277Z,22.5
2016-12-12T07:23:31.417Z,22.5
2016-12-12T07:24:06.664Z,22.5
2016-12-12T07:24:38.800Z,22.5
2016-12-12T07:25:10.932Z,22.5
2016-12-12T07:25:43.070Z,22.6
2016-12-12T07:26:15.203Z,22.6
2016-12-12T07:26:47.344Z,22.6
2016-12-12T07:27:19.476Z,22.6
2016-12-12T07:27:51.622Z,22.7
2016-12-12T07:28:23.761Z,22.7
2016-12-12T07:28:55.894Z,22.7
2016-12-12T07:29:29.273Z,22.7
2016-12-12T07:30:01.405Z,22.7
2016-12-12T07:30:33.551Z,22.7
2016-12-12T07:31:06.192Z,22.8
2016-12-12T07:31:38.341Z,22.8
2016-12-12T07:32:10.489Z,22.8
2016-12-12T07:32:43.276Z,22.8
2016-12-12T07:33:15.441Z,22.8
2016-12-12T07:33:47.579Z,22.9
2016-12-12T07:34:22.777Z,22.9
2016-12-12T07:34:54.910Z,22.9
2016-12-12T07:35:27.769Z,22.9
2016-12-12T07:36:01.345Z,22.9
2016-12-12T07:36:35.354Z,22.9
2016-12-12T07:37:07.498Z,23
2016-12-12T07:37:39.650Z,23
2016-12-12T07:38:13.308Z,23
2016-12-12T07:38:45.446Z,23
2016-12-12T07:39:17.603Z,23
2016-12-12T07:39:50.360Z,23
2016-12-12T07:40:22.499Z,22.9
2016-12-12T07:40:54.629Z,22.9
2016-12-12T07:41:27.772Z,23
2016-12-12T07:42:01.387Z,23
2016-12-12T07:42:34.871Z,23
2016-12-12T07:43:07.817Z,23
2016-12-12T07:43:41.772Z,23
2016-12-12T07:44:14.774Z,23
2016-12-12T07:44:50.561Z,23
2016-12-12T07:45:25.126Z,23
2016-12-12T07:45:58.152Z,23
2016-12-12T07:46:32.131Z,23
2016-12-12T07:47:04.258Z,23
2016-12-12T07:47:36.393Z,23
2016-12-12T07:48:09.064Z,23
2016-12-12T07:48:41.196Z,23
2016-12-12T07:49:16.125Z,23
2016-12-12T07:49:48.724Z,23
2016-12-12T07:50:23.564Z,23
2016-12-12T07:50:55.702Z,23
2016-12-12T07:51:27.841Z,23.1
2016-12-12T07:52:03.427Z,23.1
2016-12-12T07:52:36.422Z,23.1
2016-12-12T07:53:11.383Z,23.1
2016-12-12T07:53:44.496Z,23.1
2016-12-12T07:54:16.628Z,23.1
2016-12-12T07:54:48.771Z,23.1
2016-12-12T07:55:20.956Z,23.1
2016-12-12T07:55:53.090Z,23.1
2016-12-12T07:56:26.483Z,23.1
2016-12-12T07:56:58.646Z,23.1
2016-12-12T07:57:30.801Z,23.1
2016-12-12T07:58:03.484Z,23.2
2016-12-12T07:58:37.155Z,23.3
2016-12-12T07:59:09.285Z,23.3
2016-12-12T07:59:42.804Z,23.3
2016-12-12T08:00:14.929Z,23.3
2016-12-12T08:00:47.060Z,23.3
2016-12-12T08:01:19.783Z,23.4
2016-12-12T08:01:53.311Z,23.5
2016-12-12T08:02:25.462Z,23.5
2016-12-12T08:02:59.384Z,23.5
2016-12-12T08:03:31.540Z,23.5
2016-12-12T08:04:03.665Z,23.4
2016-12-12T08:04:35.793Z,23.5
2016-12-12T08:05:07.929Z,23.4
2016-12-12T08:05:40.078Z,23.5
2016-12-12T08:06:12.188Z,23.5
2016-12-12T08:06:44.341Z,23.5
2016-12-12T08:07:16.477Z,23.5
2016-12-12T08:07:48.617Z,23.5
2016-12-12T08:08:20.761Z,23.5
2016-12-12T08:08:52.912Z,23.5
2016-12-12T08:09:25.084Z,23.5
2016-12-12T08:09:57.226Z,23.5
2016-12-12T08:10:29.400Z,23.5
2016-12-12T08:11:01.551Z,23.6
2016-12-12T08:11:33.702Z,23.6
2016-12-12T08:12:05.842Z,23.7
2016-12-12T08:12:37.971Z,23.7
2016-12-12T08:13:12.013Z,23.8
2016-12-12T08:13:44.147Z,23.7
2016-12-12T08:14:16.273Z,23.7
2016-12-12T08:14:51.184Z,23.7
2016-12-12T08:15:26.001Z,23.8
2016-12-12T08:15:58.141Z,23.8
2016-12-12T08:16:32.839Z,23.8
2016-12-12T08:17:04.966Z,23.7
2016-12-12T08:17:37.106Z,23.8
2016-12-12T08:18:09.242Z,23.7
2016-12-12T08:18:42.343Z,23.7
2016-12-12T08:19:15.237Z,23.7
2016-12-12T08:19:47.379Z,23.8
2016-12-12T08:20:19.515Z,23.8
2016-12-12T08:20:51.646Z,23.8
2016-12-12T08:21:23.795Z,23.8
2016-12-12T08:21:56.861Z,23.8
2016-12-12T08:22:28.993Z,23.8
2016-12-12T08:23:01.738Z,23.8
2016-12-12T08:23:33.920Z,23.8
2016-12-12T08:24:06.058Z,23.8
2016-12-12T08:24:38.191Z,23.8
2016-12-12T08:25:10.328Z,23.8
2016-12-12T08:25:42.465Z,23.8
2016-12-12T08:26:14.595Z,23.8
2016-12-12T08:26:47.332Z,23.8
2016-12-12T08:27:19.483Z,23.8
2016-12-12T08:27:51.630Z,23.8
2016-12-12T08:28:23.768Z,23.8
2016-12-12T08:28:55.892Z,23.8
2016-12-12T08:29:28.036Z,23.8
2016-12-12T08:30:00.207Z,23.8
2016-12-12T08:30:32.344Z,23.8
2016-12-12T08:31:04.478Z,23.9
2016-12-12T08:31:36.617Z,23.9
2016-12-12T08:32:08.754Z,23.9
2016-12-12T08:32:40.911Z,23.9
2016-12-12T08:33:13.042Z,23.9
2016-12-12T08:33:45.219Z,23.9
2016-12-12T08:34:17.355Z,23.9
2016-12-12T08:34:50.336Z,23.9
2016-12-12T08:35:22.474Z,23.9
2016-12-12T08:35:54.613Z,23.9
2016-12-12T08:36:26.767Z,23.9
2016-12-12T08:36:58.903Z,23.9
2016-12-12T08:37:31.843Z,23.9
2016-12-12T08:38:04.798Z,23.9
2016-12-12T08:38:36.929Z,23.9
2016-12-12T08:39:11.606Z,23.9
2016-12-12T08:39:45.565Z,24
2016-12-12T08:40:17.709Z,24
2016-12-12T08:40:49.849Z,24
2016-12-12T08:41:21.988Z,24
2016-12-12T08:41:54.636Z,24
2016-12-12T08:42:26.767Z,24
2016-12-12T08:43:00.178Z,24
2016-12-12T08:43:32.310Z,24
2016-12-12T08:44:04.448Z,24
2016-12-12T08:44:36.580Z,24
2016-12-12T08:45:08.723Z,24
2016-12-12T08:45:40.863Z,24
2016-12-12T08:46:12.992Z,24
2016-12-12T08:46:45.125Z,24
2016-12-12T08:47:17.278Z,24.1
2016-12-12T08:47:52.802Z,24
2016-12-12T08:48:24.931Z,24
2016-12-12T08:48:57.073Z,24.1
2016-12-12T08:49:29.228Z,24.1
2016-12-12T08:50:03.722Z,24.1
2016-12-12T08:50:36.845Z,24.1
2016-12-12T08:51:11.623Z,24.1
2016-12-12T08:51:43.762Z,24.1
2016-12-12T08:52:15.900Z,24.1
2016-12-12T08:52:48.042Z,24.1
2016-12-12T08:53:20.165Z,24.1
2016-12-12T08:53:52.310Z,24.1
2016-12-12T08:54:24.441Z,24.1
2016-12-12T08:54:56.577Z,24.1
2016-12-12T08:55:28.734Z,24
2016-12-12T08:56:01.531Z,24
2016-12-12T08:56:33.662Z,24
2016-12-12T08:57:05.811Z,24
2016-12-12T08:57:37.964Z,24
2016-12-12T08:58:11.048Z,24
2016-12-12T08:58:43.197Z,24
2016-12-12T08:59:15.348Z,24
2016-12-12T08:59:47.471Z,24
2016-12-12T09:00:19.601Z,24
2016-12-12T09:00:51.741Z,24
2016-12-12T09:01:23.887Z,24
2016-12-12T09:01:56.041Z,24
2016-12-12T09:02:28.179Z,24
2016-12-12T09:03:00.324Z,24
2016-12-12T09:03:33.130Z,24
2016-12-12T09:04:05.277Z,24
2016-12-12T09:04:38.129Z,24
2016-12-12T09:05:10.277Z,24
2016-12-12T09:05:42.426Z,24
2016-12-12T09:06:14.570Z,24
2016-12-12T09:06:46.738Z,24
2016-12-12T09:07:19.592Z,24
2016-12-12T09:07:51.769Z,24
2016-12-12T09:08:23.904Z,24
2016-12-12T09:08:56.039Z,24
2016-12-12T09:09:28.178Z,24
2016-12-12T09:10:00.311Z,24
2016-12-12T09:10:32.463Z,24
2016-12-12T09:11:04.617Z,24
2016-12-12T09:11:36.756Z,24
2016-12-12T09:12:08.909Z,24
2016-12-12T09:12:41.041Z,24
2016-12-12T09:13:13.181Z,24
2016-12-12T09:13:45.318Z,24
2016-12-12T09:14:17.458Z,24
2016-12-12T09:14:49.587Z,24
2016-12-12T09:15:24.215Z,24
2016-12-12T09:15:56.359Z,24
2016-12-12T09:16:29.197Z,24
2016-12-12T09:17:01.334Z,24
2016-12-12T09:17:33.480Z,24
2016-12-12T09:18:06.183Z,24
2016-12-12T09:18:38.334Z,24.1
2016-12-12T09:19:10.470Z,24.1
2016-12-12T09:19:42.603Z,24.1
2016-12-12T09:20:16.206Z,24
2016-12-12T09:20:48.347Z,24.1
2016-12-12T09:21:20.495Z,24
2016-12-12T09:21:52.631Z,24
2016-12-12T09:22:24.760Z,24
2016-12-12T09:22:56.894Z,24
2016-12-12T09:23:29.045Z,24
2016-12-12T09:24:01.185Z,24
2016-12-12T09:24:33.330Z,24
2016-12-12T09:25:08.635Z,24
2016-12-12T09:25:40.767Z,24
2016-12-12T09:26:12.892Z,24
2016-12-12T09:26:45.043Z,24
2016-12-12T09:27:17.188Z,24
2016-12-12T09:27:49.319Z,24
2016-12-12T09:28:21.469Z,24
2016-12-12T09:28:53.623Z,24
2016-12-12T09:29:25.778Z,24.1
2016-12-12T09:29:57.914Z,24.1
2016-12-12T09:30:30.048Z,24.1
2016-12-12T09:31:02.192Z,24.1
2016-12-12T09:31:34.337Z,24.1
2016-12-12T09:32:06.475Z,24
2016-12-12T09:32:38.638Z,24
2016-12-12T09:33:10.797Z,24
2016-12-12T09:33:42.927Z,24
2016-12-12T09:34:15.059Z,24
2016-12-12T09:34:47.195Z,24.1
2016-12-12T09:35:21.387Z,24.1
2016-12-12T09:35:53.515Z,24.1
2016-12-12T09:36:25.653Z,24.1
2016-12-12T09:36:57.784Z,24.1
2016-12-12T09:37:29.925Z,24.1
2016-12-12T09:38:02.082Z,24.1
2016-12-12T09:38:34.216Z,24.1
2016-12-12T09:39:06.337Z,24.1
2016-12-12T09:39:38.478Z,24.2
2016-12-12T09:40:10.630Z,24.2
2016-12-12T09:40:42.758Z,24.2
2016-12-12T09:41:14.902Z,24.2
2016-12-12T09:41:47.884Z,24.2
2016-12-12T09:42:20.800Z,24.3
2016-12-12T09:42:52.963Z,24.3
2016-12-12T09:43:25.155Z,24.3
2016-12-12T09:43:57.287Z,24.3
2016-12-12T09:44:29.438Z,24.3
2016-12-12T09:45:01.575Z,24.3
2016-12-12T09:45:34.354Z,24.3
2016-12-12T09:46:06.516Z,24.3
2016-12-12T09:46:39.349Z,24.2
2016-12-12T09:47:12.386Z,24.3
2016-12-12T09:47:44.534Z,24.3
2016-12-12T09:48:16.676Z,24.3
2016-12-12T09:48:48.820Z,24.3
2016-12-12T09:49:20.955Z,24.2
2016-12-12T09:49:53.096Z,24.3
2016-12-12T09:50:25.236Z,24.3
2016-12-12T09:50:57.379Z,24.3
2016-12-12T09:51:30.310Z,24.3
2016-12-12T09:52:02.450Z,24.3
2016-12-12T09:52:34.578Z,24.3
2016-12-12T09:53:06.723Z,24.3
2016-12-12T09:53:38.864Z,24.3
2016-12-12T09:54:10.997Z,24.3
2016-12-12T09:54:43.140Z,24.3
2016-12-12T09:55:15.312Z,24.2
2016-12-12T09:55:48.382Z,24.2
2016-12-12T09:56:20.523Z,24.2
2016-12-12T09:56:52.685Z,24.2
2016-12-12T09:57:24.819Z,24.2
2016-12-12T09:57:56.958Z,24.2
2016-12-12T09:58:29.109Z,24.3
2016-12-12T09:59:01.238Z,24.3
2016-12-12T09:59:33.376Z,24.3
2016-12-12T10:00:05.512Z,24.3
2016-12-12T10:00:37.643Z,24.3
2016-12-12T10:01:10.422Z,24.3
2016-12-12T10:01:42.559Z,24.3
2016-12-12T10:02:14.717Z,24.3
2016-12-12T10:02:46.843Z,24.2
2016-12-12T10:03:18.985Z,24.3
2016-12-12T10:03:51.122Z,24.2
2016-12-12T10:04:23.285Z,24.2
2016-12-12T10:04:55.413Z,24.2
2016-12-12T10:05:27.551Z,24.2
2016-12-12T10:05:59.682Z,24.2
2016-12-12T10:06:31.819Z,24.2
2016-12-12T10:07:03.956Z,24.2
2016-12-12T10:07:36.104Z,24.2
2016-12-12T10:08:08.259Z,24.2
2016-12-12T10:08:40.449Z,24.2
2016-12-12T10:09:12.588Z,24.2
2016-12-12T10:09:44.715Z,24.2
2016-12-12T10:10:16.852Z,24.2
2016-12-12T10:10:48.983Z,24.2
2016-12-12T10:11:21.871Z,24.2
2016-12-12T10:11:54.024Z,24.2
2016-12-12T10:12:26.183Z,24.2
2016-12-12T10:12:58.325Z,24.2
2016-12-12T10:13:30.449Z,24.2
2016-12-12T10:14:02.588Z,24.2
2016-12-12T10:14:34.718Z,24.2
2016-12-12T10:15:07.348Z,24.3
2016-12-12T10:15:39.489Z,24.2
2016-12-12T10:16:11.630Z,24.2
2016-12-12T10:16:43.762Z,24.2
2016-12-12T10:17:15.901Z,24.2
2016-12-12T10:17:48.031Z,24.2
2016-12-12T10:18:20.168Z,24.2
2016-12-12T10:18:52.314Z,24.1
2016-12-12T10:19:24.460Z,24.1
2016-12-12T10:19:56.614Z,24.1
2016-12-12T10:20:28.751Z,24.2
2016-12-12T10:21:00.929Z,24.2
2016-12-12T10:21:33.073Z,24.1
2016-12-12T10:22:05.212Z,24.1
2016-12-12T10:22:37.365Z,24.1
2016-12-12T10:23:09.521Z,24.1
2016-12-12T10:23:43.633Z,24.1
2016-12-12T10:24:15.771Z,24.1
2016-12-12T10:24:47.913Z,24.2
2016-12-12T10:25:20.059Z,24.2
2016-12-12T10:25:53.645Z,24.2
2016-12-12T10:26:25.808Z,24.2
2016-12-12T10:26:58.732Z,24.2
2016-12-12T10:27:30.869Z,24.2
2016-12-12T10:28:03.017Z,24.2
2016-12-12T10:28:35.154Z,24.2
2016-12-12T10:29:08.227Z,24.2
2016-12-12T10:29:40.360Z,24.2
2016-12-12T10:30:12.494Z,24.2
2016-12-12T10:30:45.218Z,24.2
2016-12-12T10:31:18.172Z,24.2
2016-12-12T10:31:50.316Z,24.2
2016-12-12T10:32:22.469Z,24.1
2016-12-12T10:32:54.604Z,24.2
2016-12-12T10:33:26.727Z,24.2
2016-12-12T10:33:58.862Z,24.2
2016-12-12T10:34:31.008Z,24.2
2016-12-12T10:35:03.158Z,24.2
2016-12-12T10:35:35.304Z,24.2
2016-12-12T10:36:07.431Z,24.2
2016-12-12T10:36:39.569Z,24.2
2016-12-12T10:37:11.710Z,24.2
2016-12-12T10:37:43.851Z,24.2
2016-12-12T10:38:16.015Z,24.2
2016-12-12T10:38:48.168Z,24.2
2016-12-12T10:39:20.311Z,24.2
2016-12-12T10:39:52.449Z,24.2
2016-12-12T10:40:24.595Z,24.2
2016-12-12T10:40:56.732Z,24.2
2016-12-12T10:41:28.870Z,24.4
2016-12-12T10:42:01.039Z,24.5
2016-12-12T10:42:33.170Z,24.5
2016-12-12T10:43:05.311Z,24.6
2016-12-12T10:43:37.471Z,24.6
2016-12-12T10:44:09.605Z,24.7
2016-12-12T10:44:41.763Z,24.7
2016-12-12T10:45:13.907Z,24.7
2016-12-12T10:45:46.049Z,24.8
2016-12-12T10:46:20.302Z,24.8
2016-12-12T10:46:53.248Z,24.8
2016-12-12T10:47:25.402Z,24.8
2016-12-12T10:47:57.545Z,24.9
2016-12-12T10:48:30.900Z,24.9
2016-12-12T10:49:03.047Z,24.9
2016-12-12T10:49:35.817Z,24.9
2016-12-12T10:50:09.404Z,24.9
2016-12-12T10:50:41.539Z,25
2016-12-12T10:51:14.363Z,25.1
2016-12-12T10:51:46.517Z,25
2016-12-12T10:52:19.364Z,25
2016-12-12T10:52:51.497Z,25
2016-12-12T10:53:23.639Z,25
2016-12-12T10:53:55.775Z,25
2016-12-12T10:54:27.927Z,25
2016-12-12T10:55:00.077Z,25
2016-12-12T10:55:32.212Z,25
2016-12-12T10:56:04.354Z,24.9
2016-12-12T10:56:36.480Z,25
2016-12-12T10:57:08.611Z,25
2016-12-12T10:57:42.530Z,25
2016-12-12T10:58:14.673Z,25
2016-12-12T10:58:46.822Z,25.1
2016-12-12T10:59:18.943Z,25
2016-12-12T10:59:51.082Z,25
2016-12-12T11:00:23.224Z,25
2016-12-12T11:00:58.910Z,25
2016-12-12T11:01:31.036Z,25
2016-12-12T11:02:03.189Z,25
2016-12-12T11:02:35.324Z,25
2016-12-12T11:03:09.486Z,24.9
2016-12-12T11:03:41.626Z,24.9
2016-12-12T11:04:13.765Z,24.9
2016-12-12T11:04:45.900Z,24.9
2016-12-12T11:05:18.038Z,24.9
2016-12-12T11:05:50.175Z,25.1
2016-12-12T11:06:22.343Z,24.9
2016-12-12T11:06:54.492Z,24.9
2016-12-12T11:07:26.641Z,24.8
2016-12-12T11:07:58.781Z,24.8
2016-12-12T11:08:30.940Z,24.8
2016-12-12T11:09:03.877Z,24.8
2016-12-12T11:09:36.020Z,24.7
2016-12-12T11:10:10.802Z,24.7
2016-12-12T11:10:42.948Z,24.7
2016-12-12T11:11:15.101Z,24.7
2016-12-12T11:11:47.240Z,24.6
2016-12-12T11:12:19.392Z,24.6
2016-12-12T11:12:51.539Z,24.6
2016-12-12T11:13:23.687Z,24.6
2016-12-12T11:13:56.739Z,24.6
2016-12-12T11:14:28.876Z,24.6
2016-12-12T11:15:01.047Z,24.6
2016-12-12T11:15:33.218Z,24.6
2016-12-12T11:16:05.370Z,24.6
2016-12-12T11:16:38.289Z,24.6
2016-12-12T11:17:10.421Z,24.6
2016-12-12T11:17:42.558Z,24.6
2016-12-12T11:18:15.285Z,24.6
2016-12-12T11:18:47.410Z,24.6
2016-12-12T11:19:19.570Z,24.5
2016-12-12T11:19:51.714Z,24.5
2016-12-12T11:20:23.859Z,24.5
2016-12-12T11:20:56.005Z,24.5
2016-12-12T11:21:28.164Z,24.4
2016-12-12T11:22:01.773Z,24.2
2016-12-12T11:22:33.921Z,24.1
2016-12-12T11:23:06.064Z,24.1
2016-12-12T11:23:38.218Z,24.1
2016-12-12T11:24:10.356Z,24
2016-12-12T11:24:46.006Z,24
2016-12-12T11:25:18.145Z,23.9
2016-12-12T11:25:50.307Z,23.9
2016-12-12T11:26:22.447Z,23.9
2016-12-12T11:26:54.596Z,23.9
2016-12-12T11:27:26.733Z,23.9
2016-12-12T11:27:59.605Z,23.9
2016-12-12T11:28:31.756Z,24
2016-12-12T11:29:07.054Z,24
2016-12-12T11:29:39.191Z,24
2016-12-12T11:30:11.332Z,24
2016-12-12T11:30:43.483Z,24.1
2016-12-12T11:31:15.620Z,24.1
2016-12-12T11:31:47.761Z,24.1
2016-12-12T11:32:19.896Z,24.1
2016-12-12T11:32:52.039Z,24.2
2016-12-12T11:33:25.098Z,24.2
2016-12-12T11:33:58.754Z,24.2
2016-12-12T11:34:30.909Z,24.2
2016-12-12T11:35:03.773Z,24.2
2016-12-12T11:35:36.749Z,24.2
2016-12-12T11:36:08.877Z,24.2
2016-12-12T11:36:41.026Z,24.3
2016-12-12T11:37:13.168Z,24.3
2016-12-12T11:37:45.284Z,24.4
2016-12-12T11:38:17.427Z,24.5
2016-12-12T11:38:49.584Z,24.5
2016-12-12T11:39:23.875Z,24.4
2016-12-12T11:39:56.000Z,24.3
2016-12-12T11:40:28.138Z,24.3
2016-12-12T11:41:00.270Z,24.3
2016-12-12T11:41:32.406Z,24.2
2016-12-12T11:42:04.562Z,24.1
2016-12-12T11:42:36.696Z,24.1
2016-12-12T11:43:08.836Z,24.1
2016-12-12T11:43:40.976Z,24.1
2016-12-12T11:44:13.110Z,24.1
2016-12-12T11:44:47.705Z,24.2
2016-12-12T11:45:19.860Z,24.1
2016-12-12T11:45:51.996Z,24.1
2016-12-12T11:46:24.131Z,24
2016-12-12T11:46:56.265Z,24.1
2016-12-12T11:47:28.405Z,24.1
2016-12-12T11:48:00.547Z,24
2016-12-12T11:48:32.682Z,23.9
2016-12-12T12:19:10.489Z,23.4
2016-12-12T12:19:43.165Z,23.4
2016-12-12T12:20:15.836Z,23.3
2016-12-12T12:20:49.202Z,23.4
2016-12-12T12:21:22.556Z,23.2
2016-12-12T12:21:55.250Z,23.1
2016-12-12T12:22:28.703Z,23.2
2016-12-12T12:23:58.160Z,23.7
2016-12-12T12:24:32.336Z,23.7
2016-12-12T12:25:54.265Z,23.6
2016-12-12T12:26:26.963Z,23.6
2016-12-12T12:27:12.145Z,23.5
2016-12-12T12:27:44.822Z,23.5
2016-12-12T12:28:17.515Z,23.5
2016-12-12T12:29:04.452Z,23.6
2016-12-12T12:29:36.596Z,23.8
2016-12-12T12:30:08.726Z,23.9
2016-12-12T12:31:59.144Z,24
2016-12-12T12:32:31.829Z,24
2016-12-12T12:33:04.534Z,24
2016-12-12T12:33:37.226Z,23.8
2016-12-12T12:34:09.898Z,23.7
2016-12-12T12:34:42.589Z,23.6
2016-12-12T12:35:15.270Z,23.5
2016-12-12T12:35:47.955Z,23.5
2016-12-12T12:36:20.646Z,23.4
2016-12-12T12:36:53.337Z,23.3
2016-12-12T12:37:26.006Z,23.3
2016-12-12T12:37:58.698Z,23.4
2016-12-12T12:38:31.384Z,23.4
2016-12-12T12:39:04.057Z,23.5
2016-12-12T12:39:36.737Z,23.5
2016-12-12T12:40:09.426Z,23.6
2016-12-12T12:40:42.105Z,23.6
2016-12-12T12:41:14.792Z,23.6
2016-12-12T12:41:48.328Z,23.6
2016-12-12T12:42:21.010Z,23.7
2016-12-12T12:42:54.307Z,23.7
2016-12-12T12:43:26.983Z,23.8
2016-12-12T12:43:59.685Z,23.8
2016-12-12T12:44:32.370Z,23.8
2016-12-12T12:45:06.471Z,23.9
2016-12-12T12:45:39.155Z,23.9
2016-12-12T12:46:11.844Z,23.9
2016-12-12T12:46:44.535Z,23.9
2016-12-12T12:47:17.222Z,23.9
2016-12-12T12:47:49.924Z,24
2016-12-12T12:48:22.620Z,24
2016-12-12T12:48:57.716Z,24
2016-12-12T12:49:30.403Z,24
2016-12-12T12:50:03.104Z,24
2016-12-12T12:50:35.791Z,23.9
2016-12-12T12:51:11.019Z,23.9
2016-12-12T12:51:43.693Z,23.9
2016-12-12T12:52:16.391Z,24
2016-12-12T12:52:49.976Z,24
2016-12-12T12:53:26.082Z,24
2016-12-12T12:54:01.679Z,24
2016-12-12T12:54:34.405Z,24
2016-12-12T12:55:08.870Z,24
2016-12-12T12:55:41.557Z,24
2016-12-12T12:56:14.250Z,24.1
2016-12-12T12:56:46.972Z,24.1
2016-12-12T12:57:20.322Z,24
2016-12-12T12:57:53.038Z,23.9
2016-12-12T12:58:26.929Z,23.8
2016-12-12T12:58:59.618Z,23.8
2016-12-12T12:59:32.311Z,23.7
2016-12-12T13:00:05.011Z,23.6
2016-12-12T13:00:37.697Z,23.5
2016-12-12T13:01:10.383Z,23.4
2016-12-12T13:01:43.076Z,23.4
2016-12-12T15:08:27.692Z,24.2
2016-12-12T15:09:00.364Z,24.2
